createdAt,value
2019-04-28T00:00:01.359Z,85.60
2019-04-28T00:01:01.054Z,85.50
2019-04-28T00:02:01.347Z,86.36
2019-04-28T00:03:00.765Z,85.91
2019-04-28T00:03:59.330Z,85.91
2019-04-28T00:04:59.345Z,85.30
2019-04-28T00:06:01.092Z,85.30
2019-04-28T00:06:59.320Z,85.91
2019-04-28T00:08:01.164Z,85.30
2019-04-28T00:08:59.280Z,85.50
2019-04-28T00:10:01.005Z,86.53
2019-04-28T00:10:59.248Z,86.53
2019-04-28T00:11:59.260Z,86.53
2019-04-28T00:13:00.936Z,86.43
2019-04-28T00:13:59.216Z,86.94
2019-04-28T00:14:59.205Z,85.75
2019-04-28T00:15:59.198Z,85.50
2019-04-28T00:17:00.972Z,86.57
2019-04-28T00:17:59.206Z,84.92
2019-04-28T00:19:00.942Z,84.81
2019-04-28T00:19:59.148Z,85.71
2019-04-28T00:21:00.852Z,86.32
2019-04-28T00:22:00.936Z,85.71
2019-04-28T00:22:59.143Z,85.23
2019-04-28T00:23:59.134Z,86.32
2019-04-28T00:24:59.098Z,86.78
2019-04-28T00:25:59.099Z,86.78
2019-04-28T00:26:59.075Z,86.88
2019-04-28T00:27:59.068Z,86.98
2019-04-28T00:28:59.048Z,87.05
2019-04-28T00:29:59.081Z,86.88
2019-04-28T00:30:59.055Z,87.35
2019-04-28T00:31:59.025Z,87.19
2019-04-28T00:32:59.010Z,87.40
2019-04-28T00:33:58.996Z,87.35
2019-04-28T00:34:58.985Z,87.08
2019-04-28T00:35:58.995Z,87.19
2019-04-28T00:36:58.981Z,88.64
2019-04-28T00:37:58.953Z,87.08
2019-04-28T00:38:58.946Z,87.40
2019-04-28T00:40:00.899Z,86.68
2019-04-28T00:40:58.933Z,86.63
2019-04-28T00:41:58.935Z,86.68
2019-04-28T00:43:00.816Z,86.16
2019-04-28T00:43:58.894Z,85.81
2019-04-28T00:44:58.905Z,85.64
2019-04-28T00:45:58.886Z,86.57
2019-04-28T00:46:58.857Z,86.57
2019-04-28T00:47:58.881Z,86.57
2019-04-28T00:48:58.837Z,86.57
2019-04-28T00:49:58.822Z,85.33
2019-04-28T00:50:58.813Z,85.13
2019-04-28T00:51:58.813Z,84.61
2019-04-28T00:52:58.824Z,85.02
2019-04-28T00:54:00.714Z,87.08
2019-04-28T00:54:58.769Z,86.57
2019-04-28T00:55:58.774Z,85.75
2019-04-28T00:56:58.758Z,86.26
2019-04-28T00:57:58.734Z,85.95
2019-04-28T00:58:58.729Z,84.72
2019-04-28T00:59:59.048Z,84.72
2019-04-28T01:00:58.711Z,84.92
2019-04-28T01:01:58.690Z,85.44
2019-04-28T01:02:58.676Z,86.26
2019-04-28T01:03:58.697Z,85.85
2019-04-28T01:04:58.657Z,86.26
2019-04-28T01:05:58.672Z,85.64
2019-04-28T01:06:58.636Z,86.57
2019-04-28T01:07:58.633Z,86.57
2019-04-28T01:08:58.617Z,86.47
2019-04-28T01:09:58.619Z,85.23
2019-04-28T01:10:58.587Z,85.64
2019-04-28T01:11:58.599Z,86.57
2019-04-28T01:12:58.567Z,86.26
2019-04-28T01:13:58.556Z,85.95
2019-04-28T01:15:00.225Z,86.47
2019-04-28T01:15:59.530Z,86.78
2019-04-28T01:16:59.847Z,86.36
2019-04-28T01:17:58.537Z,86.36
2019-04-28T01:19:00.076Z,86.26
2019-04-28T01:19:59.777Z,86.68
2019-04-28T01:20:59.650Z,87.08
2019-04-28T01:22:00.295Z,86.47
2019-04-28T01:23:00.360Z,86.57
2019-04-28T01:23:59.831Z,85.64
2019-04-28T01:24:59.559Z,87.19
2019-04-28T01:26:00.057Z,86.57
2019-04-28T01:27:00.386Z,87.50
2019-04-28T01:28:00.106Z,86.78
2019-04-28T01:28:59.652Z,87.40
2019-04-28T01:30:06.249Z,87.40
2019-04-28T01:30:59.915Z,87.74
2019-04-28T01:31:58.362Z,87.85
2019-04-28T01:32:59.650Z,88.57
2019-04-28T01:34:00.085Z,86.88
2019-04-28T01:34:59.841Z,87.13
2019-04-28T01:36:00.352Z,87.08
2019-04-28T01:36:59.841Z,87.08
2019-04-28T01:37:59.741Z,87.08
2019-04-28T01:38:59.903Z,86.57
2019-04-28T01:39:59.690Z,86.78
2019-04-28T01:40:59.735Z,86.78
2019-04-28T01:41:59.551Z,86.36
2019-04-28T01:42:59.774Z,87.23
2019-04-28T01:44:00.093Z,86.98
2019-04-28T01:44:58.211Z,86.82
2019-04-28T01:46:00.088Z,86.61
2019-04-28T01:47:00.993Z,86.57
2019-04-28T01:48:00.464Z,86.61
2019-04-28T01:48:59.894Z,86.71
2019-04-28T01:50:01.765Z,87.54
2019-04-28T01:50:59.823Z,87.13
2019-04-28T01:51:58.157Z,87.44
2019-04-28T01:52:59.757Z,88.68
2019-04-28T01:54:00.073Z,88.47
2019-04-28T01:55:00.287Z,86.92
2019-04-28T01:55:59.532Z,87.44
2019-04-28T01:56:59.231Z,87.65
2019-04-28T01:57:59.593Z,88.64
2019-04-28T01:58:58.061Z,87.34
2019-04-28T01:59:59.839Z,87.34
2019-04-28T02:00:59.593Z,87.65
2019-04-28T02:01:59.939Z,88.26
2019-04-28T02:02:58.020Z,88.16
2019-04-28T02:03:58.008Z,88.47
2019-04-28T02:04:59.702Z,87.34
2019-04-28T02:05:59.989Z,87.44
2019-04-28T02:06:59.766Z,88.12
2019-04-28T02:07:57.967Z,86.71
2019-04-28T02:08:57.953Z,86.71
2019-04-28T02:09:57.943Z,87.54
2019-04-28T02:10:57.930Z,87.13
2019-04-28T02:11:57.933Z,86.61
2019-04-28T02:12:59.796Z,86.61
2019-04-28T02:13:59.590Z,86.82
2019-04-28T02:14:57.888Z,86.78
2019-04-28T02:15:59.867Z,86.82
2019-04-28T02:16:57.865Z,86.82
2019-04-28T02:17:59.987Z,87.13
2019-04-28T02:18:59.635Z,87.65
2019-04-28T02:19:57.838Z,87.54
2019-04-28T02:20:59.588Z,87.54
2019-04-28T02:21:59.518Z,87.44
2019-04-28T02:22:57.832Z,86.92
2019-04-28T02:23:59.603Z,86.41
2019-04-28T02:24:57.787Z,86.82
2019-04-28T02:25:59.653Z,87.13
2019-04-28T02:26:57.754Z,86.71
2019-04-28T02:27:59.515Z,86.92
2019-04-28T02:28:57.746Z,87.13
2019-04-28T02:29:59.910Z,86.51
2019-04-28T02:30:57.709Z,86.82
2019-04-28T02:31:57.696Z,86.71
2019-04-28T02:32:57.718Z,87.23
2019-04-28T02:33:57.682Z,86.98
2019-04-28T02:35:00.796Z,87.29
2019-04-28T02:35:57.674Z,86.92
2019-04-28T02:37:01.001Z,86.88
2019-04-28T02:37:59.983Z,86.98
2019-04-28T02:38:57.626Z,86.57
2019-04-28T02:40:02.928Z,87.13
2019-04-28T02:41:00.176Z,86.78
2019-04-28T02:41:57.594Z,86.78
2019-04-28T02:42:57.611Z,86.98
2019-04-28T02:43:57.577Z,87.29
2019-04-28T02:45:00.284Z,86.88
2019-04-28T02:45:57.556Z,86.78
2019-04-28T02:46:57.556Z,86.57
2019-04-28T02:47:57.522Z,87.08
2019-04-28T02:48:57.526Z,87.40
2019-04-28T02:50:00.593Z,87.19
2019-04-28T02:50:57.493Z,87.44
2019-04-28T02:51:57.489Z,87.81
2019-04-28T02:52:57.489Z,86.71
2019-04-28T02:53:57.476Z,86.71
2019-04-28T02:54:59.502Z,87.65
2019-04-28T02:56:00.716Z,87.40
2019-04-28T02:56:57.419Z,87.44
2019-04-28T02:57:57.424Z,87.54
2019-04-28T02:58:57.421Z,86.61
2019-04-28T02:59:57.384Z,87.54
2019-04-28T03:01:08.993Z,87.02
2019-04-28T03:02:00.641Z,88.06
2019-04-28T03:02:57.355Z,87.85
2019-04-28T03:03:57.341Z,87.23
2019-04-28T03:04:57.349Z,86.71
2019-04-28T03:05:57.315Z,86.82
2019-04-28T03:06:57.317Z,87.65
2019-04-28T03:07:57.303Z,86.82
2019-04-28T03:08:57.285Z,87.34
2019-04-28T03:09:57.283Z,87.44
2019-04-28T03:10:57.291Z,87.44
2019-04-28T03:11:57.260Z,87.65
2019-04-28T03:12:57.243Z,87.54
2019-04-28T03:13:57.232Z,87.02
2019-04-28T03:14:57.235Z,87.54
2019-04-28T03:15:57.245Z,87.40
2019-04-28T03:16:57.216Z,88.68
2019-04-28T03:17:57.217Z,87.44
2019-04-28T03:18:57.175Z,86.71
2019-04-28T03:19:57.166Z,87.44
2019-04-28T03:20:57.176Z,88.78
2019-04-28T03:21:57.146Z,88.47
2019-04-28T03:22:57.158Z,87.65
2019-04-28T03:23:57.118Z,86.82
2019-04-28T03:24:57.110Z,86.92
2019-04-28T03:25:57.099Z,87.95
2019-04-28T03:26:57.100Z,87.02
2019-04-28T03:27:57.093Z,86.61
2019-04-28T03:28:57.100Z,87.65
2019-04-28T03:29:57.077Z,87.34
2019-04-28T03:30:57.052Z,87.50
2019-04-28T03:32:16.042Z,87.13
2019-04-28T03:33:04.855Z,87.92
2019-04-28T03:33:58.037Z,86.92
2019-04-28T03:34:56.999Z,86.30
2019-04-28T03:35:57.006Z,86.68
2019-04-28T03:36:56.979Z,87.40
2019-04-28T03:37:56.970Z,86.82
2019-04-28T03:38:56.963Z,87.54
2019-04-28T03:39:56.969Z,87.44
2019-04-28T03:40:56.943Z,87.34
2019-04-28T03:41:56.921Z,86.51
2019-04-28T03:42:59.470Z,87.34
2019-04-28T03:44:00.359Z,87.54
2019-04-28T03:44:56.896Z,87.85
2019-04-28T03:45:56.921Z,88.57
2019-04-28T03:46:56.866Z,88.68
2019-04-28T03:47:56.853Z,88.47
2019-04-28T03:48:56.880Z,88.26
2019-04-28T03:49:56.845Z,88.98
2019-04-28T03:50:56.822Z,89.09
2019-04-28T03:51:56.830Z,88.16
2019-04-28T03:52:56.817Z,88.47
2019-04-28T03:53:56.789Z,88.89
2019-04-28T03:54:56.781Z,89.40
2019-04-28T03:55:56.768Z,89.19
2019-04-28T03:56:56.753Z,88.57
2019-04-28T03:57:56.763Z,89.09
2019-04-28T03:58:56.739Z,89.29
2019-04-28T03:59:56.748Z,89.50
2019-04-28T04:00:56.713Z,89.71
2019-04-28T04:02:00.770Z,90.47
2019-04-28T04:03:00.589Z,90.78
2019-04-28T04:03:56.679Z,90.58
2019-04-28T04:04:56.666Z,91.30
2019-04-28T04:05:56.661Z,91.09
2019-04-28T04:06:56.642Z,91.61
2019-04-28T04:07:56.654Z,92.33
2019-04-28T04:08:56.652Z,92.44
2019-04-28T04:09:56.612Z,91.82
2019-04-28T04:10:56.593Z,92.33
2019-04-28T04:11:56.623Z,92.23
2019-04-28T04:12:56.583Z,92.89
2019-04-28T04:13:56.587Z,92.64
2019-04-28T04:14:56.614Z,92.89
2019-04-28T04:15:56.548Z,93.30
2019-04-28T04:16:56.557Z,93.47
2019-04-28T04:17:56.524Z,93.82
2019-04-28T04:18:56.524Z,93.82
2019-04-28T04:19:56.508Z,93.72
2019-04-28T04:20:56.530Z,93.82
2019-04-28T04:21:56.473Z,94.13
2019-04-28T04:22:56.500Z,94.85
2019-04-28T04:23:56.458Z,94.50
2019-04-28T04:24:56.441Z,94.85
2019-04-28T04:25:56.449Z,94.81
2019-04-28T04:26:56.437Z,94.54
2019-04-28T04:27:56.411Z,94.71
2019-04-28T04:28:56.393Z,94.44
2019-04-28T04:29:56.382Z,94.71
2019-04-28T04:30:56.374Z,95.02
2019-04-28T04:32:10.228Z,94.34
2019-04-28T04:32:57.385Z,94.44
2019-04-28T04:33:56.353Z,94.13
2019-04-28T04:34:56.327Z,94.34
2019-04-28T04:35:56.346Z,94.60
2019-04-28T04:36:56.306Z,94.60
2019-04-28T04:37:56.293Z,94.75
2019-04-28T04:38:56.331Z,94.75
2019-04-28T04:39:56.301Z,94.34
2019-04-28T04:40:56.265Z,94.75
2019-04-28T04:41:56.257Z,94.65
2019-04-28T04:42:56.253Z,94.85
2019-04-28T04:43:56.245Z,94.60
2019-04-28T04:44:56.243Z,94.85
2019-04-28T04:45:56.211Z,94.85
2019-04-28T04:46:56.195Z,94.54
2019-04-28T04:47:56.185Z,94.71
2019-04-28T04:48:56.182Z,94.44
2019-04-28T04:49:56.168Z,94.75
2019-04-28T04:50:56.187Z,94.34
2019-04-28T04:51:56.146Z,94.71
2019-04-28T04:52:56.130Z,94.40
2019-04-28T04:53:56.122Z,94.50
2019-04-28T04:54:56.131Z,94.13
2019-04-28T04:55:56.100Z,94.13
2019-04-28T04:56:56.101Z,93.98
2019-04-28T04:57:56.075Z,94.03
2019-04-28T04:58:56.066Z,93.93
2019-04-28T04:59:56.065Z,94.13
2019-04-28T05:00:56.044Z,94.65
2019-04-28T05:01:56.027Z,94.85
2019-04-28T05:02:56.059Z,94.65
2019-04-28T05:03:56.010Z,94.65
2019-04-28T05:04:56.015Z,94.34
2019-04-28T05:05:55.999Z,94.34
2019-04-28T05:06:55.975Z,94.75
2019-04-28T05:07:55.958Z,94.65
2019-04-28T05:08:55.993Z,94.85
2019-04-28T05:09:55.958Z,94.44
2019-04-28T05:10:55.930Z,95.27
2019-04-28T05:11:55.938Z,94.75
2019-04-28T05:12:55.905Z,94.81
2019-04-28T05:13:55.912Z,94.81
2019-04-28T05:14:55.910Z,94.92
2019-04-28T05:15:55.941Z,95.64
2019-04-28T05:16:55.862Z,95.84
2019-04-28T05:17:55.849Z,95.53
2019-04-28T05:18:55.844Z,96.05
2019-04-28T05:19:55.837Z,95.43
2019-04-28T05:20:55.830Z,95.43
2019-04-28T05:21:55.807Z,94.92
2019-04-28T05:22:55.815Z,95.12
2019-04-28T05:23:55.791Z,95.95
2019-04-28T05:24:55.792Z,95.95
2019-04-28T05:25:55.769Z,95.02
2019-04-28T05:26:55.821Z,95.32
2019-04-28T05:27:59.340Z,95.95
2019-04-28T05:28:56.743Z,96.01
2019-04-28T05:29:56.734Z,96.15
2019-04-28T05:30:56.713Z,95.95
2019-04-28T05:31:59.774Z,95.02
2019-04-28T05:32:57.451Z,94.92
2019-04-28T05:33:55.699Z,95.12
2019-04-28T05:34:55.668Z,94.50
2019-04-28T05:36:01.110Z,94.60
2019-04-28T05:36:56.641Z,94.92
2019-04-28T05:37:55.655Z,94.50
2019-04-28T05:38:55.642Z,94.50
2019-04-28T05:39:55.611Z,94.81
2019-04-28T05:40:55.593Z,94.71
2019-04-28T05:41:55.609Z,94.81
2019-04-28T05:42:55.588Z,94.40
2019-04-28T05:43:55.569Z,93.98
2019-04-28T05:44:55.571Z,94.35
2019-04-28T05:45:55.537Z,94.50
2019-04-28T05:46:55.540Z,94.71
2019-04-28T05:47:55.523Z,95.02
2019-04-28T05:48:55.504Z,94.71
2019-04-28T05:49:55.499Z,93.88
2019-04-28T05:50:55.517Z,93.73
2019-04-28T05:51:55.502Z,94.56
2019-04-28T05:52:55.479Z,93.98
2019-04-28T05:53:55.458Z,93.94
2019-04-28T05:54:55.441Z,93.53
2019-04-28T05:55:55.436Z,93.63
2019-04-28T05:56:55.436Z,93.53
2019-04-28T05:57:55.423Z,93.38
2019-04-28T05:58:55.418Z,92.97
2019-04-28T05:59:55.386Z,92.97
2019-04-28T06:00:55.423Z,92.76
2019-04-28T06:01:55.385Z,92.25
2019-04-28T06:02:56.838Z,92.35
2019-04-28T06:03:55.348Z,92.35
2019-04-28T06:04:55.328Z,92.25
2019-04-28T06:05:57.079Z,91.94
2019-04-28T06:06:55.341Z,91.42
2019-04-28T06:07:55.309Z,91.01
2019-04-28T06:08:55.334Z,91.63
2019-04-28T06:09:55.307Z,92.25
2019-04-28T06:10:55.290Z,92.66
2019-04-28T06:11:55.253Z,92.51
2019-04-28T06:12:55.245Z,92.00
2019-04-28T06:13:55.232Z,92.41
2019-04-28T06:14:55.250Z,91.69
2019-04-28T06:15:55.210Z,92.25
2019-04-28T06:16:55.204Z,91.79
2019-04-28T06:17:55.190Z,92.10
2019-04-28T06:18:55.181Z,92.35
2019-04-28T06:19:55.174Z,92.14
2019-04-28T06:20:55.183Z,92.55
2019-04-28T06:21:55.163Z,92.41
2019-04-28T06:22:55.140Z,92.25
2019-04-28T06:23:55.128Z,92.25
2019-04-28T06:24:55.124Z,91.63
2019-04-28T06:25:55.113Z,90.80
2019-04-28T06:26:55.110Z,91.32
2019-04-28T06:27:55.082Z,90.91
2019-04-28T06:28:55.100Z,92.04
2019-04-28T06:29:55.064Z,91.79
2019-04-28T06:30:55.060Z,91.63
2019-04-28T06:31:55.040Z,91.28
2019-04-28T06:33:07.289Z,91.28
2019-04-28T06:33:56.037Z,92.10
2019-04-28T06:34:55.028Z,91.89
2019-04-28T06:35:54.999Z,90.97
2019-04-28T06:36:55.005Z,90.25
2019-04-28T06:37:54.986Z,90.35
2019-04-28T06:38:55.002Z,90.82
2019-04-28T06:39:54.958Z,90.51
2019-04-28T06:40:54.953Z,90.72
2019-04-28T06:41:54.946Z,90.41
2019-04-28T06:42:54.938Z,89.17
2019-04-28T06:43:54.934Z,89.44
2019-04-28T06:44:54.926Z,89.44
2019-04-28T06:45:54.898Z,89.03
2019-04-28T06:46:54.889Z,89.34
2019-04-28T06:47:54.888Z,89.29
2019-04-28T06:48:54.918Z,88.89
2019-04-28T06:49:54.855Z,89.61
2019-04-28T06:50:54.868Z,89.19
2019-04-28T06:51:54.841Z,89.09
2019-04-28T06:52:54.827Z,88.78
2019-04-28T06:53:54.817Z,87.03
2019-04-28T06:54:54.800Z,88.62
2019-04-28T06:55:54.793Z,87.24
2019-04-28T06:56:54.803Z,88.72
2019-04-28T06:57:54.797Z,88.47
2019-04-28T06:58:59.281Z,89.19
2019-04-28T06:59:54.754Z,88.89
2019-04-28T07:00:54.745Z,88.06
2019-04-28T07:01:54.733Z,88.37
2019-04-28T07:02:54.741Z,88.62
2019-04-28T07:03:54.708Z,88.72
2019-04-28T07:05:01.591Z,88.82
2019-04-28T07:05:55.696Z,88.82
2019-04-28T07:06:54.686Z,88.82
2019-04-28T07:07:54.687Z,89.85
2019-04-28T07:08:54.704Z,88.92
2019-04-28T07:09:54.663Z,88.92
2019-04-28T07:10:54.635Z,89.34
2019-04-28T07:11:54.629Z,90.16
2019-04-28T07:12:54.615Z,91.19
2019-04-28T07:13:54.611Z,91.50
2019-04-28T07:14:54.615Z,91.30
2019-04-28T07:15:54.598Z,90.61
2019-04-28T07:16:54.584Z,91.13
2019-04-28T07:17:54.571Z,91.30
2019-04-28T07:18:54.584Z,91.03
2019-04-28T07:19:54.553Z,91.03
2019-04-28T07:20:54.584Z,90.51
2019-04-28T07:21:54.532Z,90.92
2019-04-28T07:22:54.517Z,91.34
2019-04-28T07:23:54.501Z,91.34
2019-04-28T07:24:54.510Z,90.61
2019-04-28T07:25:54.490Z,91.13
2019-04-28T07:26:54.508Z,90.37
2019-04-28T07:27:54.459Z,91.60
2019-04-28T07:28:54.453Z,91.30
2019-04-28T07:29:54.453Z,90.88
2019-04-28T07:30:54.434Z,90.57
2019-04-28T07:31:54.427Z,90.16
2019-04-28T07:32:54.471Z,88.89
2019-04-28T07:33:54.407Z,89.34
2019-04-28T07:34:54.393Z,90.84
2019-04-28T07:35:54.413Z,88.89
2019-04-28T07:36:54.376Z,89.29
2019-04-28T07:37:54.361Z,89.36
2019-04-28T07:38:54.376Z,88.95
2019-04-28T07:39:56.688Z,89.46
2019-04-28T07:40:54.326Z,88.80
2019-04-28T07:41:54.317Z,87.19
2019-04-28T07:42:54.313Z,88.08
2019-04-28T07:43:54.293Z,87.09
2019-04-28T07:44:54.295Z,86.43
2019-04-28T07:45:54.290Z,86.74
2019-04-28T07:46:54.261Z,87.36
2019-04-28T07:47:54.249Z,86.64
2019-04-28T07:48:54.243Z,86.85
2019-04-28T07:49:54.220Z,85.61
2019-04-28T07:50:54.230Z,87.22
2019-04-28T07:51:54.197Z,86.29
2019-04-28T07:52:54.190Z,86.32
2019-04-28T07:53:54.202Z,86.11
2019-04-28T07:54:54.168Z,86.17
2019-04-28T07:55:54.157Z,84.53
2019-04-28T07:56:54.171Z,83.09
2019-04-28T07:57:54.140Z,84.84
2019-04-28T07:58:54.124Z,85.14
2019-04-28T07:59:54.108Z,81.30
2019-04-28T08:00:54.110Z,82.40
2019-04-28T08:01:54.101Z,82.60
2019-04-28T08:02:54.093Z,82.56
2019-04-28T08:03:54.061Z,82.53
2019-04-28T08:04:54.051Z,79.35
2019-04-28T08:05:54.046Z,79.42
2019-04-28T08:06:54.029Z,80.90
2019-04-28T08:07:54.016Z,80.49
2019-04-28T08:08:54.026Z,80.58
2019-04-28T08:09:54.000Z,79.46
2019-04-28T08:10:53.983Z,80.45
2019-04-28T08:11:53.973Z,79.52
2019-04-28T08:12:53.960Z,78.19
2019-04-28T08:13:53.945Z,78.70
2019-04-28T08:14:53.943Z,78.64
2019-04-28T08:15:53.927Z,79.63
2019-04-28T08:16:53.913Z,77.44
2019-04-28T08:17:53.900Z,77.84
2019-04-28T08:18:53.886Z,77.92
2019-04-28T08:19:53.873Z,77.06
2019-04-28T08:20:53.894Z,78.46
2019-04-28T08:21:53.866Z,77.36
2019-04-28T08:22:53.833Z,76.61
2019-04-28T08:23:53.823Z,77.64
2019-04-28T08:24:53.809Z,75.96
2019-04-28T08:25:53.802Z,75.65
2019-04-28T08:26:53.806Z,75.59
2019-04-28T08:27:53.774Z,70.65
2019-04-28T08:28:53.768Z,64.62
2019-04-28T08:29:58.637Z,64.51
2019-04-28T08:30:54.746Z,66.67
2019-04-28T08:31:53.739Z,68.94
2019-04-28T08:32:53.740Z,71.63
2019-04-28T08:34:02.285Z,72.24
2019-04-28T08:34:54.692Z,69.48
2019-04-28T08:35:53.691Z,70.84
2019-04-28T08:36:53.678Z,72.89
2019-04-28T08:37:53.664Z,74.05
2019-04-28T08:38:53.668Z,72.04
2019-04-28T08:39:53.657Z,69.96
2019-04-28T08:40:53.629Z,70.57
2019-04-28T08:41:53.622Z,72.21
2019-04-28T08:42:53.603Z,71.73
2019-04-28T08:43:53.601Z,72.38
2019-04-28T08:44:53.619Z,73.74
2019-04-28T08:45:53.579Z,75.18
2019-04-28T08:46:53.563Z,74.11
2019-04-28T08:47:54.054Z,74.39
2019-04-28T08:48:53.542Z,72.41
2019-04-28T08:49:53.534Z,71.15
2019-04-28T08:50:53.541Z,72.17
2019-04-28T08:51:53.517Z,68.92
2019-04-28T08:52:53.500Z,66.04
2019-04-28T08:53:53.511Z,68.13
2019-04-28T08:54:53.485Z,66.82
2019-04-28T08:55:53.465Z,65.86
2019-04-28T08:56:53.476Z,63.26
2019-04-28T08:57:53.440Z,64.32
2019-04-28T08:58:53.433Z,63.54
2019-04-28T08:59:53.422Z,62.41
2019-04-28T09:00:53.412Z,63.35
2019-04-28T09:01:53.390Z,64.73
2019-04-28T09:02:53.403Z,63.18
2019-04-28T09:03:53.375Z,64.37
2019-04-28T09:04:53.364Z,62.78
2019-04-28T09:05:53.348Z,63.19
2019-04-28T09:06:53.348Z,64.34
2019-04-28T09:07:53.377Z,62.54
2019-04-28T09:08:53.335Z,64.87
2019-04-28T09:09:53.313Z,65.34
2019-04-28T09:10:53.293Z,66.90
2019-04-28T09:11:53.287Z,67.95
2019-04-28T09:12:53.270Z,68.46
2019-04-28T09:13:53.262Z,67.95
2019-04-28T09:14:53.269Z,68.13
2019-04-28T09:15:53.232Z,66.32
2019-04-28T09:16:53.224Z,56.71
2019-04-28T09:17:53.218Z,56.46
2019-04-28T09:18:53.221Z,61.34
2019-04-28T09:19:53.191Z,62.98
2019-04-28T09:20:53.194Z,66.70
2019-04-28T09:21:53.174Z,69.38
2019-04-28T09:22:53.157Z,71.15
2019-04-28T09:23:53.141Z,67.79
2019-04-28T09:24:53.142Z,68.98
2019-04-28T09:25:53.134Z,66.33
2019-04-28T09:26:53.127Z,66.86
2019-04-28T09:27:53.098Z,66.80
2019-04-28T09:28:53.097Z,67.07
2019-04-28T09:29:53.079Z,68.84
2019-04-28T09:30:53.073Z,71.42
2019-04-28T09:31:53.053Z,72.75
2019-04-28T09:32:53.059Z,72.75
2019-04-28T09:33:53.036Z,73.81
2019-04-28T09:34:53.025Z,76.44
2019-04-28T09:35:53.007Z,78.63
2019-04-28T09:36:53.008Z,80.41
2019-04-28T09:37:52.988Z,81.06
2019-04-28T09:38:52.994Z,83.80
2019-04-28T09:39:52.964Z,83.01
2019-04-28T09:40:52.954Z,84.55
2019-04-28T09:41:52.969Z,86.71
2019-04-28T09:42:52.946Z,87.94
2019-04-28T09:43:52.921Z,88.04
2019-04-28T09:44:52.932Z,86.09
2019-04-28T09:45:52.889Z,87.53
2019-04-28T09:46:52.884Z,88.41
2019-04-28T09:47:52.878Z,88.21
2019-04-28T09:48:52.857Z,88.00
2019-04-28T09:49:52.842Z,88.00
2019-04-28T09:50:52.852Z,88.06
2019-04-28T09:51:52.822Z,87.55
2019-04-28T09:52:52.804Z,86.48
2019-04-28T09:53:52.793Z,86.48
2019-04-28T09:54:52.780Z,86.04
2019-04-28T09:55:52.775Z,81.73
2019-04-28T09:56:56.982Z,82.62
2019-04-28T09:57:54.853Z,82.71
2019-04-28T09:58:52.748Z,82.27
2019-04-28T09:59:52.725Z,82.13
2019-04-28T10:00:52.753Z,80.19
2019-04-28T10:01:52.701Z,80.25
2019-04-28T10:02:52.707Z,75.99
2019-04-28T10:03:52.681Z,77.73
2019-04-28T10:04:52.669Z,77.73
2019-04-28T10:05:52.656Z,77.73
2019-04-28T10:06:52.652Z,75.14
2019-04-28T10:07:52.638Z,74.32
2019-04-28T10:08:52.644Z,76.91
2019-04-28T10:09:52.612Z,80.05
2019-04-28T10:10:52.600Z,74.76
2019-04-28T10:11:52.598Z,78.55
2019-04-28T10:12:52.590Z,80.19
2019-04-28T10:13:52.572Z,82.29
2019-04-28T10:14:52.616Z,79.23
2019-04-28T10:15:52.545Z,79.68
2019-04-28T10:16:52.539Z,79.37
2019-04-28T10:17:52.518Z,77.63
2019-04-28T10:18:52.509Z,73.74
2019-04-28T10:19:52.498Z,75.52
2019-04-28T10:20:52.511Z,74.32
2019-04-28T10:21:52.490Z,75.59
2019-04-28T10:22:52.462Z,78.01
2019-04-28T10:23:52.453Z,79.64
2019-04-28T10:24:52.453Z,80.16
2019-04-28T10:25:52.435Z,71.52
2019-04-28T10:26:52.430Z,74.49
2019-04-28T10:27:52.408Z,71.22
2019-04-28T10:28:52.393Z,72.86
2019-04-28T10:29:52.382Z,78.08
2019-04-28T10:30:52.371Z,76.85
2019-04-28T10:31:52.363Z,77.26
2019-04-28T10:32:52.363Z,75.99
2019-04-28T10:33:52.328Z,76.95
2019-04-28T10:34:55.010Z,77.16
2019-04-28T10:35:52.320Z,75.42
2019-04-28T10:36:52.312Z,76.37
2019-04-28T10:37:52.284Z,75.76
2019-04-28T10:38:52.302Z,76.89
2019-04-28T10:39:52.283Z,77.64
2019-04-28T10:40:52.252Z,77.33
2019-04-28T10:41:52.232Z,77.74
2019-04-28T10:42:52.227Z,78.67
2019-04-28T10:43:52.215Z,78.25
2019-04-28T10:44:52.274Z,78.60
2019-04-28T10:45:52.199Z,79.93
2019-04-28T10:46:52.180Z,79.36
2019-04-28T10:47:52.172Z,79.46
2019-04-28T10:48:52.154Z,79.46
2019-04-28T10:49:52.170Z,80.18
2019-04-28T10:50:52.153Z,80.42
2019-04-28T10:51:59.206Z,83.50
2019-04-28T10:52:53.108Z,82.57
2019-04-28T10:53:52.092Z,81.45
2019-04-28T10:54:52.112Z,79.49
2019-04-28T10:55:52.076Z,81.04
2019-04-28T10:56:52.086Z,81.62
2019-04-28T10:57:52.052Z,81.82
2019-04-28T10:58:52.036Z,81.37
2019-04-28T10:59:52.029Z,80.92
2019-04-28T11:00:52.030Z,79.49
2019-04-28T11:01:52.016Z,79.38
2019-04-28T11:02:52.004Z,77.95
2019-04-28T11:03:51.978Z,78.16
2019-04-28T11:04:51.967Z,77.68
2019-04-28T11:05:51.960Z,77.17
2019-04-28T11:06:51.943Z,78.60
2019-04-28T11:07:51.953Z,79.32
2019-04-28T11:08:51.957Z,81.06
2019-04-28T11:09:51.911Z,81.30
2019-04-28T11:10:51.894Z,83.46
2019-04-28T11:11:51.884Z,83.46
2019-04-28T11:12:51.893Z,84.49
2019-04-28T11:13:51.863Z,83.87
2019-04-28T11:14:51.869Z,84.80
2019-04-28T11:15:51.853Z,85.41
2019-04-28T11:16:51.823Z,86.17
2019-04-28T11:17:51.818Z,85.76
2019-04-28T11:18:51.803Z,85.14
2019-04-28T11:19:51.797Z,86.72
2019-04-28T11:20:51.798Z,88.06
2019-04-28T11:21:51.773Z,88.89
2019-04-28T11:22:51.756Z,89.50
2019-04-28T11:23:51.756Z,88.10
2019-04-28T11:24:51.743Z,89.23
2019-04-28T11:25:51.726Z,88.96
2019-04-28T11:26:51.738Z,87.84
2019-04-28T11:27:51.700Z,88.45
2019-04-28T11:28:51.694Z,88.66
2019-04-28T11:29:51.695Z,90.09
2019-04-28T11:30:51.689Z,91.02
2019-04-28T11:31:51.657Z,91.33
2019-04-28T11:32:51.675Z,91.39
2019-04-28T11:33:51.635Z,91.91
2019-04-28T11:34:51.627Z,90.78
2019-04-28T11:35:51.614Z,91.29
2019-04-28T11:36:51.601Z,91.33
2019-04-28T11:37:51.598Z,91.70
2019-04-28T11:38:51.605Z,90.88
2019-04-28T11:39:51.572Z,90.98
2019-04-28T11:40:51.556Z,90.83
2019-04-28T11:41:51.542Z,91.51
2019-04-28T11:42:51.536Z,91.78
2019-04-28T11:43:51.522Z,91.06
2019-04-28T11:44:51.571Z,90.75
2019-04-28T11:45:51.500Z,89.69
2019-04-28T11:46:51.492Z,89.75
2019-04-28T11:47:51.474Z,90.05
2019-04-28T11:48:51.466Z,90.05
2019-04-28T11:49:51.464Z,88.47
2019-04-28T11:50:51.456Z,88.98
2019-04-28T11:51:51.435Z,88.98
2019-04-28T11:52:51.423Z,88.43
2019-04-28T11:53:51.416Z,83.20
2019-04-28T11:54:51.397Z,86.11
2019-04-28T11:55:51.377Z,87.92
2019-04-28T11:56:51.403Z,87.61
2019-04-28T11:57:51.361Z,87.47
2019-04-28T11:58:51.351Z,83.37
2019-04-28T11:59:53.960Z,83.13
2019-04-28T12:00:51.323Z,82.21
2019-04-28T12:01:51.315Z,77.94
2019-04-28T12:02:51.449Z,80.64
2019-04-28T12:03:51.296Z,80.30
2019-04-28T12:04:51.273Z,79.79
2019-04-28T12:05:51.261Z,80.51
2019-04-28T12:06:51.257Z,79.54
2019-04-28T12:07:51.245Z,79.61
2019-04-28T12:08:51.246Z,79.44
2019-04-28T12:10:03.373Z,80.74
2019-04-28T12:10:52.206Z,79.30
2019-04-28T12:11:51.221Z,79.13
2019-04-28T12:12:51.182Z,80.22
2019-04-28T12:13:51.170Z,79.61
2019-04-28T12:14:51.176Z,80.57
2019-04-28T12:15:51.156Z,79.61
2019-04-28T12:16:51.135Z,81.04
2019-04-28T12:17:51.141Z,80.63
2019-04-28T12:18:51.116Z,77.97
2019-04-28T12:19:51.108Z,77.87
2019-04-28T12:20:51.111Z,78.75
2019-04-28T12:21:51.112Z,77.73
2019-04-28T12:22:51.086Z,77.87
2019-04-28T12:23:51.060Z,77.67
2019-04-28T12:24:51.046Z,77.80
2019-04-28T12:25:51.045Z,76.31
2019-04-28T12:26:51.071Z,77.53
2019-04-28T12:27:51.019Z,74.56
2019-04-28T12:28:51.002Z,77.12
2019-04-28T12:29:50.991Z,77.43
2019-04-28T12:30:50.985Z,77.94
2019-04-28T12:31:50.971Z,78.66
2019-04-28T12:32:50.986Z,79.68
2019-04-28T12:33:50.948Z,78.39
2019-04-28T12:34:50.935Z,79.31
2019-04-28T12:35:50.935Z,79.62
2019-04-28T12:36:50.918Z,79.21
2019-04-28T12:37:50.899Z,79.48
2019-04-28T12:38:50.910Z,77.84
2019-04-28T12:39:50.878Z,75.62
2019-04-28T12:40:50.873Z,75.66
2019-04-28T12:41:50.853Z,79.04
2019-04-28T12:42:50.851Z,79.45
2019-04-28T12:43:50.833Z,78.63
2019-04-28T12:44:50.844Z,79.04
2019-04-28T12:45:50.811Z,80.58
2019-04-28T12:46:50.796Z,80.68
2019-04-28T12:47:50.790Z,78.12
2019-04-28T12:48:50.770Z,77.98
2019-04-28T12:49:50.775Z,78.39
2019-04-28T12:50:50.767Z,77.98
2019-04-28T12:51:50.742Z,77.94